Terminal Aerodrome Forecast
Issued by NWS Charleston, WV

Home | Current Version | Previous Version | Text Only | Print | Product List | Glossary On
Versions: 1 2 3 4 5 6 7 8 9 10 11 12 13 14 15 16 17 18 19 20 21 22 23 24 25 26 27 28 29 30 31 32 33 34 35 36 37 38 39 40 41 42 43 44 45 46 47 48 49 50
658
FTUS41 KRLX 240855 AAA
TAFEKN
TAF AMD
KEKN 240855Z 2409/2506 00000KT P6SM SCT015 BKN025
     FM241000 00000KT P6SM BKN015 OVC030
     FM241400 31005KT P6SM BKN025
     FM242000 31008KT P6SM SCT035
     FM242300 00000KT P6SM FEW045
     FM250300 00000KT 4SM BR FEW002
     FM250500 00000KT 1/2SM FG VV002=

USA.gov is the U.S. government's official web portal to all federal, state and local government web resources and services.